Time;durP1;ratioP1;P1;durP2;ratioP2;P2;SDS_P1;SDS_P2;PMS_P1;PMS_P2;Temp;Humidity;BMP_temperature;BMP_pressure;BME280_temperature;BME280_humidity;BME280_pressure;Samples;Min_cycle;Max_cycle;Signal;HPM_P1;HPM_P2
2022/08/20 00:01:05;;;;;;;34.60;17.92;;;;;;;17.93;100.00;101379.63;6189999;23;20059;-89
2022/08/20 00:03:38;;;;;;;34.28;17.73;;;;;;;17.95;100.00;101377.50;6216143;23;20000;-88
2022/08/20 00:06:16;;;;;;;37.43;17.93;;;;;;;17.98;100.00;101374.25;6189190;23;20004;-88
2022/08/20 00:08:46;;;;;;;35.78;17.98;;;;;;;17.99;100.00;101372.31;6190655;23;20017;-89
2022/08/20 00:11:43;;;;;;;35.47;17.63;;;;;;;17.97;100.00;101371.75;6189905;23;20035;-89
2022/08/20 00:14:11;;;;;;;31.13;16.80;;;;;;;18.00;100.00;101373.97;6172040;23;20008;-89
2022/08/20 00:16:37;;;;;;;35.70;17.42;;;;;;;17.98;100.00;101359.66;6215681;23;20001;-89
2022/08/20 00:19:08;;;;;;;33.57;16.83;;;;;;;18.00;100.00;101366.56;6216510;23;20087;-89
2022/08/20 00:21:35;;;;;;;34.22;17.65;;;;;;;17.98;100.00;101371.50;6216262;23;20001;-89
2022/08/20 00:24:03;;;;;;;35.75;16.75;;;;;;;17.99;100.00;101361.34;6190058;23;20091;-89
2022/08/20 00:26:31;;;;;;;33.45;17.13;;;;;;;18.00;100.00;101360.25;6189471;23;20008;-89
2022/08/20 00:28:59;;;;;;;34.72;16.38;;;;;;;18.00;100.00;101360.25;6189418;23;20001;-88
2022/08/20 00:31:30;;;;;;;33.83;17.03;;;;;;;17.95;100.00;101365.66;6216245;23;20000;-88
2022/08/20 00:34:00;;;;;;;38.03;17.83;;;;;;;17.95;100.00;101366.50;6188979;23;20375;-88
2022/08/20 00:36:26;;;;;;;38.00;17.80;;;;;;;17.93;100.00;101359.59;6165433;23;20013;-89
2022/08/20 00:38:57;;;;;;;34.50;16.60;;;;;;;17.91;100.00;101362.59;6189676;23;20024;-88
2022/08/20 00:41:24;;;;;;;32.15;16.63;;;;;;;17.98;100.00;101362.41;6189651;23;20016;-84
2022/08/20 00:44:07;;;;;;;40.08;17.95;;;;;;;17.96;100.00;101362.66;6191547;23;20059;-84
2022/08/20 00:46:33;;;;;;;38.00;17.35;;;;;;;18.01;100.00;101364.66;6191025;23;20013;-84
2022/08/20 00:48:59;;;;;;;34.63;17.30;;;;;;;18.03;100.00;101371.56;6217973;23;20012;-84
2022/08/20 00:51:45;;;;;;;42.43;17.77;;;;;;;17.96;100.00;101370.91;6218015;23;20009;-84
2022/08/20 00:54:19;;;;;;;37.65;17.10;;;;;;;17.97;100.00;101364.34;6217708;23;20005;-84
2022/08/20 00:56:49;;;;;;;37.05;16.88;;;;;;;17.92;100.00;101364.25;6191641;23;20358;-84
2022/08/20 00:59:20;;;;;;;31.98;15.57;;;;;;;17.91;100.00;101368.09;6192299;23;20423;-84
2022/08/20 01:01:46;;;;;;;34.30;17.02;;;;;;;17.86;100.00;101377.06;6191450;23;20457;-84
2022/08/20 01:04:11;;;;;;;30.87;16.07;;;;;;;17.85;100.00;101371.81;6191518;23;20016;-84
2022/08/20 01:06:38;;;;;;;37.10;17.48;;;;;;;17.85;100.00;101372.63;6191772;23;20001;-83
2022/08/20 01:09:05;;;;;;;34.83;16.50;;;;;;;17.82;100.00;101362.16;6191162;23;20055;-84
2022/08/20 01:11:34;;;;;;;36.85;18.00;;;;;;;17.81;100.00;101370.66;6190895;23;20339;-84
2022/08/20 01:14:27;;;;;;;35.95;17.38;;;;;;;17.79;100.00;101370.06;6192128;23;20059;-84
2022/08/20 01:17:01;;;;;;;36.90;17.73;;;;;;;17.76;100.00;101368.66;6191480;23;20012;-84
2022/08/20 01:19:44;;;;;;;37.03;19.60;;;;;;;17.75;100.00;101367.00;6191346;23;20008;-84
2022/08/20 01:25:07;;;;;;;48.67;21.50;;;;;;;17.75;100.00;101377.16;6218102;23;20071;-84
2022/08/20 01:27:34;;;;;;;45.10;20.58;;;;;;;17.76;100.00;101374.16;6190906;23;20012;-84
2022/08/20 01:30:01;;;;;;;41.53;20.60;;;;;;;17.75;100.00;101372.47;6216046;23;20018;-84
2022/08/20 01:32:27;;;;;;;43.45;20.95;;;;;;;17.75;100.00;101380.72;6190972;23;20000;-84
2022/08/20 01:34:53;;;;;;;44.97;20.83;;;;;;;17.75;100.00;101385.38;6166119;23;20031;-84
2022/08/20 01:37:18;;;;;;;44.88;21.35;;;;;;;17.76;100.00;101373.31;6190939;23;20023;-84
2022/08/20 01:39:44;;;;;;;42.10;21.50;;;;;;;17.75;100.00;101375.22;6190860;23;20004;-84
2022/08/20 01:42:40;;;;;;;46.77;21.30;;;;;;;17.73;100.00;101366.44;6166359;23;20015;-83
2022/08/20 01:45:06;;;;;;;45.97;22.30;;;;;;;17.72;100.00;101370.25;6191203;23;20013;-84
2022/08/20 01:47:32;;;;;;;44.22;20.55;;;;;;;17.72;100.00;101367.50;6217459;23;20055;-84
2022/08/20 01:50:02;;;;;;;43.20;20.67;;;;;;;17.72;100.00;101367.50;6217743;23;20007;-84
2022/08/20 01:53:12;;;;;;;49.75;21.80;;;;;;;17.66;100.00;101369.31;6190170;23;20011;-84
2022/08/20 01:55:38;;;;;;;47.17;20.93;;;;;;;17.65;100.00;101377.81;6121951;23;20043;-84
2022/08/20 01:58:03;;;;;;;45.80;21.48;;;;;;;17.62;100.00;101376.38;6190868;23;20088;-83
2022/08/20 02:00:31;;;;;;;52.07;23.37;;;;;;;17.62;100.00;101372.81;6165968;23;20008;-84
2022/08/20 02:02:56;;;;;;;47.47;23.13;;;;;;;17.62;100.00;101376.38;6217222;23;20001;-84
2022/08/20 02:05:22;;;;;;;55.07;23.47;;;;;;;17.59;100.00;101376.88;6165837;23;20013;-84
2022/08/20 02:07:48;;;;;;;52.35;24.02;;;;;;;17.58;100.00;101371.66;6191287;23;20015;-84
2022/08/20 02:10:17;;;;;;;53.53;24.73;;;;;;;17.60;100.00;101374.97;6216953;23;20427;-84
2022/08/20 02:12:43;;;;;;;52.35;25.30;;;;;;;17.61;100.00;101380.22;6217210;23;20011;-84
2022/08/20 02:15:10;;;;;;;60.03;26.23;;;;;;;17.59;100.00;101381.56;6191280;23;20013;-84
2022/08/20 02:17:36;;;;;;;53.23;25.03;;;;;;;17.57;100.00;101380.97;6190585;23;20016;-84
2022/08/20 02:20:10;;;;;;;52.97;24.92;;;;;;;17.61;100.00;101377.50;6217186;23;20080;-84
2022/08/20 02:22:43;;;;;;;47.47;24.17;;;;;;;17.61;100.00;101379.38;6190407;23;20088;-84
2022/08/20 02:25:10;;;;;;;50.70;24.27;;;;;;;17.59;100.00;101379.63;6190266;23;20096;-84
2022/08/20 02:27:38;;;;;;;57.33;25.30;;;;;;;17.58;100.00;101388.94;6190757;23;20005;-84
2022/08/20 02:30:09;;;;;;;50.67;23.23;;;;;;;17.52;100.00;101385.31;6190464;23;20047;-84
2022/08/20 02:32:36;;;;;;;47.28;22.90;;;;;;;17.51;100.00;101386.38;6217109;23;20013;-84
2022/08/20 02:35:07;;;;;;;47.90;22.48;;;;;;;17.44;100.00;101373.91;6165598;23;20016;-84
2022/08/20 02:37:34;;;;;;;44.97;21.13;;;;;;;17.46;100.00;101374.47;6190001;23;20100;-85
2022/08/20 02:40:00;;;;;;;53.22;21.95;;;;;;;17.42;100.00;101376.91;6166459;23;20008;-85
2022/08/20 02:42:25;;;;;;;44.63;21.70;;;;;;;17.38;100.00;101377.63;6191141;23;20005;-84
2022/08/20 02:44:51;;;;;;;49.90;21.73;;;;;;;17.35;100.00;101381.72;6190348;23;20009;-84
2022/08/20 02:47:17;;;;;;;47.53;23.25;;;;;;;17.35;100.00;101387.19;6189848;23;20091;-84
2022/08/20 02:49:43;;;;;;;51.27;24.07;;;;;;;17.34;100.00;101389.09;6189947;23;20007;-85
2022/08/20 02:52:08;;;;;;;56.43;24.20;;;;;;;17.33;100.00;101387.44;6166069;23;20020;-84
2022/08/20 02:54:34;;;;;;;54.60;25.75;;;;;;;17.32;100.00;101401.41;6190168;23;20012;-84
2022/08/20 02:57:02;;;;;;;60.10;25.40;;;;;;;17.34;100.00;101394.56;6190097;23;20008;-84
2022/08/20 02:59:27;;;;;;;59.73;27.80;;;;;;;17.29;100.00;101391.75;6165681;23;20004;-84
2022/08/20 03:01:52;;;;;;;63.83;27.25;;;;;;;17.28;100.00;101389.25;6165269;23;20047;-85
2022/08/20 03:04:18;;;;;;;63.63;27.63;;;;;;;17.29;100.00;101394.50;6216442;23;20023;-85
2022/08/20 03:06:43;;;;;;;61.40;28.60;;;;;;;17.27;100.00;101393.06;6190221;23;20044;-84
2022/08/20 03:09:09;;;;;;;59.13;28.33;;;;;;;17.27;100.00;101393.06;6216708;23;20019;-84
2022/08/20 03:11:34;;;;;;;62.83;30.73;;;;;;;17.24;100.00;101386.16;6165240;23;20013;-84
2022/08/20 03:14:00;;;;;;;59.47;28.73;;;;;;;17.20;100.00;101387.75;6166261;23;20012;-84
2022/08/20 03:16:25;;;;;;;56.70;28.20;;;;;;;17.13;100.00;101393.38;6190289;23;20009;-84
2022/08/20 03:18:51;;;;;;;59.33;28.77;;;;;;;17.13;100.00;101390.66;6190298;23;20319;-85
2022/08/20 03:21:16;;;;;;;64.78;28.02;;;;;;;17.07;100.00;101399.03;6190305;23;20084;-84
2022/08/20 03:23:42;;;;;;;62.33;28.47;;;;;;;17.02;100.00;101397.00;6216475;23;20005;-84
2022/08/20 03:26:10;;;;;;;61.45;28.65;;;;;;;17.00;100.00;101393.69;6189808;23;20477;-85
2022/08/20 03:28:35;;;;;;;62.93;28.37;;;;;;;17.00;100.00;101394.50;6189916;23;20436;-85
2022/08/20 03:31:01;;;;;;;54.40;27.05;;;;;;;16.93;100.00;101404.81;6164987;23;20008;-84
2022/08/20 03:33:30;;;;;;;54.70;26.30;;;;;;;16.91;100.00;101401.47;6216497;23;20004;-85
2022/08/20 03:35:55;;;;;;;52.50;25.65;;;;;;;16.87;100.00;101410.41;6189679;23;20004;-85
2022/08/20 03:38:22;;;;;;;50.85;24.38;;;;;;;16.80;100.00;101397.69;6164506;23;20013;-85
2022/08/20 03:40:49;;;;;;;59.40;24.43;;;;;;;16.80;100.00;101405.91;6189747;23;20015;-84
2022/08/20 03:43:15;;;;;;;47.05;23.45;;;;;;;16.78;100.00;101409.94;6216258;23;20007;-84
2022/08/20 03:45:42;;;;;;;53.00;24.08;;;;;;;16.75;100.00;101408.53;6189619;23;20009;-85
2022/08/20 03:48:11;;;;;;;56.90;24.13;;;;;;;16.74;100.00;101408.75;6216333;23;20054;-85
2022/08/20 03:50:41;;;;;;;51.20;24.20;;;;;;;16.70;100.00;101402.94;6189956;23;20366;-84
2022/08/20 03:53:08;;;;;;;58.78;24.90;;;;;;;16.68;100.00;101410.56;6165788;23;20012;-84
2022/08/20 03:55:33;;;;;;;50.80;22.52;;;;;;;16.66;100.00;101410.81;6189734;23;20060;-85
2022/08/20 03:58:01;;;;;;;47.77;23.43;;;;;;;16.67;100.00;101419.88;6214706;23;20012;-85
2022/08/20 04:00:47;;;;;;;60.50;24.70;;;;;;;16.66;100.00;101418.19;6189675;23;20098;-85
2022/08/20 04:03:13;;;;;;;54.22;24.17;;;;;;;16.62;100.00;101406.06;6189980;23;20051;-85
2022/08/20 04:05:39;;;;;;;51.83;23.20;;;;;;;16.59;100.00;101410.09;6164990;23;20424;-85
2022/08/20 04:08:08;;;;;;;56.03;24.47;;;;;;;16.61;100.00;101413.44;6215917;23;20378;-85
2022/08/20 04:10:34;;;;;;;57.25;25.95;;;;;;;16.56;100.00;101407.84;6189904;23;20095;-85
2022/08/20 04:12:59;;;;;;;52.95;23.40;;;;;;;16.57;100.00;101419.66;6164672;23;20452;-85
2022/08/20 04:15:28;;;;;;;51.60;24.33;;;;;;;16.55;100.00;101430.00;6190573;23;20078;-84
2022/08/20 04:17:53;;;;;;;55.88;26.10;;;;;;;16.53;100.00;101433.00;6191217;23;20395;-84
2022/08/20 04:20:24;;;;;;;58.57;26.00;;;;;;;16.51;100.00;101429.66;6217665;23;20019;-84
2022/08/20 04:22:52;;;;;;;58.38;25.27;;;;;;;16.53;100.00;101427.50;6191563;23;20011;-84
2022/08/20 04:25:18;;;;;;;53.40;26.40;;;;;;;16.53;100.00;101430.25;6191959;23;20036;-84
2022/08/20 04:27:45;;;;;;;65.80;28.57;;;;;;;16.54;100.00;101433.84;6191738;23;20407;-85
2022/08/20 04:30:15;;;;;;;66.53;29.42;;;;;;;16.55;100.00;101430.88;6191770;23;20435;-84
2022/08/20 04:32:40;;;;;;;67.35;31.17;;;;;;;16.54;100.00;101433.84;6168552;23;20004;-85
2022/08/20 04:35:10;;;;;;;68.93;32.17;;;;;;;16.54;100.00;101444.81;6141691;23;20046;-85
2022/08/20 04:37:40;;;;;;;71.03;34.05;;;;;;;16.54;100.00;101434.66;6191152;23;20024;-84
2022/08/20 04:42:53;;;;;;;66.85;33.70;;;;;;;16.53;100.00;101446.69;6217771;23;20020;-85
2022/08/20 04:45:20;;;;;;;79.73;34.47;;;;;;;16.56;100.00;101451.69;6191499;23;20009;-84
2022/08/20 04:47:46;;;;;;;74.65;35.90;;;;;;;16.53;100.00;101454.09;6191345;23;20009;-84
2022/08/20 04:50:16;;;;;;;73.25;35.88;;;;;;;16.52;100.00;101452.41;6166181;23;20016;-84
2022/08/20 04:52:42;;;;;;;66.73;33.90;;;;;;;16.52;100.00;101455.16;6191690;23;20012;-86
2022/08/20 04:55:08;;;;;;;70.82;34.50;;;;;;;16.46;100.00;101459.66;6166762;23;20058;-85
2022/08/20 04:57:37;;;;;;;75.20;34.10;;;;;;;16.42;100.00;101455.78;6191470;23;20009;-85
2022/08/20 05:00:05;;;;;;;74.32;34.17;;;;;;;16.40;100.00;101455.16;6191277;23;20091;-85
2022/08/20 05:02:31;;;;;;;71.72;33.33;;;;;;;16.38;100.00;101465.53;6217605;23;20004;-85
2022/08/20 05:04:56;;;;;;;75.40;34.17;;;;;;;16.38;100.00;101469.09;6190893;23;20009;-85
2022/08/20 05:07:24;;;;;;;72.82;35.65;;;;;;;16.34;100.00;101478.03;6191295;23;20017;-85
2022/08/20 05:09:50;;;;;;;73.37;33.87;;;;;;;16.36;100.00;101471.25;6142516;23;20016;-84
2022/08/20 05:12:18;;;;;;;75.40;35.22;;;;;;;16.37;100.00;101472.06;6141674;23;20015;-84
2022/08/20 05:14:45;;;;;;;66.47;31.77;;;;;;;16.35;100.00;101477.78;6166078;23;20009;-84
2022/08/20 05:17:13;;;;;;;65.53;31.20;;;;;;;16.33;100.00;101476.34;6216160;23;20009;-85
2022/08/20 05:19:41;;;;;;;69.45;31.98;;;;;;;16.33;100.00;101470.88;6192127;23;20391;-84
2022/08/20 05:22:07;;;;;;;69.72;32.92;;;;;;;16.31;100.00;101468.38;6191183;23;20043;-85
2022/08/20 05:24:33;;;;;;;68.93;33.60;;;;;;;16.26;100.00;101471.84;6191363;23;20012;-84
2022/08/20 05:27:00;;;;;;;79.90;33.87;;;;;;;16.29;100.00;101478.75;6191053;23;20012;-84
2022/08/20 05:29:27;;;;;;;78.93;35.00;;;;;;;16.29;100.00;101479.56;6217600;23;20013;-84
2022/08/20 05:31:55;;;;;;;82.83;34.13;;;;;;;16.34;100.00;101478.03;6217875;23;20070;-87
2022/08/20 05:34:24;;;;;;;71.85;31.27;;;;;;;16.41;100.00;101479.56;6191026;23;20009;-89
2022/08/20 05:36:52;;;;;;;72.45;33.40;;;;;;;16.44;100.00;101478.25;6165850;23;20103;-90
2022/08/20 05:39:27;;;;;;;72.55;33.08;;;;;;;16.49;100.00;101483.88;6190810;23;20005;-89
2022/08/20 05:41:55;;;;;;;76.13;32.97;;;;;;;16.50;100.00;101480.03;6166764;23;20012;-90
2022/08/20 05:44:27;;;;;;;70.10;31.37;;;;;;;16.52;100.00;101485.28;6191511;23;20012;-89
2022/08/20 05:46:57;;;;;;;75.80;31.98;;;;;;;16.54;100.00;101485.88;6191837;23;20012;-90
2022/08/20 05:49:22;;;;;;;74.50;33.63;;;;;;;16.56;100.00;101491.94;6191549;23;20055;-88
2022/08/20 05:51:50;;;;;;;71.63;32.37;;;;;;;16.67;100.00;101502.06;6191027;23;20009;-87
2022/08/20 05:54:15;;;;;;;77.10;33.15;;;;;;;16.68;100.00;101495.50;6189316;23;20088;-89
2022/08/20 05:56:41;;;;;;;73.18;34.15;;;;;;;16.70;100.00;101493.38;6191881;23;20047;-90
2022/08/20 05:59:11;;;;;;;68.47;32.20;;;;;;;16.71;100.00;101491.44;6217947;23;20084;-91
2022/08/20 06:01:41;;;;;;;67.85;32.65;;;;;;;16.75;100.00;101503.59;6191323;23;20005;-90
2022/08/20 06:04:27;;;;;;;75.22;33.25;;;;;;;16.78;100.00;101503.94;6217948;23;20004;-91
2022/08/20 06:07:00;;;;;;;71.57;32.38;;;;;;;16.78;100.00;101495.72;6218563;23;20082;-91
2022/08/20 06:09:26;;;;;;;64.57;32.42;;;;;;;16.82;100.00;101504.31;6191474;23;20008;-89
2022/08/20 06:11:52;;;;;;;65.40;32.60;;;;;;;16.80;100.00;101509.19;6217275;23;20167;-88
2022/08/20 06:14:20;;;;;;;69.05;31.75;;;;;;;16.76;100.00;101506.09;6216795;23;20388;-88
2022/08/20 06:16:45;;;;;;;66.55;33.45;;;;;;;16.74;100.00;101508.25;6190369;23;20408;-87
2022/08/20 06:19:11;;;;;;;70.57;33.07;;;;;;;16.69;100.00;101505.38;6165697;23;20008;-85
2022/08/20 06:28:20;;;;;;;72.30;32.35;;;;;;;16.80;100.00;101507.28;6152857;23;20504;-88
2022/08/20 06:30:51;;;;;;;68.40;32.50;;;;;;;16.83;100.00;101501.31;6190332;23;20087;-89
2022/08/20 06:33:35;;;;;;;75.82;33.53;;;;;;;16.96;100.00;101497.53;6190084;23;20015;-89
2022/08/20 06:36:21;;;;;;;71.82;32.55;;;;;;;17.04;100.00;101495.44;6190118;23;20005;-87
2022/08/20 06:41:42;;;;;;;70.18;33.05;;;;;;;17.00;100.00;101503.34;6127887;23;20080;-88
2022/08/20 06:44:35;;;;;;;68.07;33.73;;;;;;;17.00;100.00;101504.16;6190199;23;20035;-88
2022/08/20 06:47:10;;;;;;;65.13;33.35;;;;;;;16.98;100.00;101503.56;6214981;23;20012;-87
2022/08/20 06:49:46;;;;;;;78.75;33.67;;;;;;;17.09;100.00;101520.25;6191087;23;20083;-88
2022/08/20 06:52:24;;;;;;;77.60;35.10;;;;;;;16.96;100.00;101503.00;6189942;23;20008;-87
2022/08/20 06:55:02;;;;;;;76.50;36.00;;;;;;;16.94;100.00;101507.88;6166786;23;20442;-87
2022/08/20 06:57:46;;;;;;;82.20;36.30;;;;;;;16.99;100.00;101504.41;6190546;23;20062;-88
2022/08/20 07:00:26;;;;;;;80.25;36.90;;;;;;;16.99;100.00;101501.66;6190974;23;20011;-87
2022/08/20 07:03:01;;;;;;;;;;;;;;;;;;;;;
2022/08/20 07:05:35;;;;;;;77.05;36.58;;;;;;;17.15;100.00;101511.84;6217322;23;20084;-88
2022/08/20 07:08:18;;;;;;;;;;;;;;;;;;;;;
2022/08/20 07:10:47;;;;;;;71.03;36.33;;;;;;;17.29;100.00;101508.84;6217072;23;20071;-88
2022/08/20 07:13:15;;;;;;;71.88;34.50;;;;;;;17.47;100.00;101505.91;6216223;23;20083;-88
2022/08/20 07:15:45;;;;;;;74.55;36.10;;;;;;;17.61;100.00;101509.19;6189874;23;20039;-88
2022/08/20 07:18:12;;;;;;;66.40;35.15;;;;;;;17.85;100.00;101520.03;6189896;23;20096;-88
2022/08/20 07:20:41;;;;;;;64.80;33.42;;;;;;;17.98;100.00;101519.75;6216535;23;20005;-88
2022/08/20 07:23:12;;;;;;;65.27;32.67;;;;;;;18.20;100.00;101519.84;6216052;23;20012;-88
2022/08/20 07:25:47;;;;;;;62.95;31.80;;;;;;;18.29;100.00;101523.00;6189750;23;20063;-88
2022/08/20 07:28:23;;;;;;;57.38;31.55;;;;;;;18.32;100.00;101530.72;6190809;23;20330;-88
2022/08/20 07:33:54;;;;;;;52.70;31.63;;;;;;;18.49;100.00;101530.69;6216744;23;20023;-88
2022/08/20 07:36:29;;;;;;;56.63;31.77;;;;;;;18.71;100.00;101533.47;6142328;23;20015;-89
2022/08/20 07:39:07;;;;;;;;;;;;;;;;;;;;;
2022/08/20 07:42:09;;;;;;;54.97;32.60;;;;;;;18.72;100.00;101534.31;6217044;23;20095;-88
2022/08/20 07:44:38;;;;;;;64.50;31.38;;;;;;;19.03;100.00;101545.75;6216599;23;20427;-88
2022/08/20 07:47:23;;;;;;;48.05;28.92;;;;;;;19.22;100.00;101549.00;6164782;23;20016;-88
2022/08/20 07:50:08;;;;;;;52.13;29.97;;;;;;;19.37;100.00;101557.47;6166947;23;20016;-88
2022/08/20 07:52:36;;;;;;;54.28;29.85;;;;;;;19.38;100.00;101548.09;6189355;23;20009;-87
2022/08/20 07:55:51;;;;;;;;;;;;;;;;;;;;;
2022/08/20 07:58:41;;;;;;;45.35;27.27;;;;;;;19.47;100.00;101553.97;6216548;23;20071;-87
2022/08/20 08:01:40;;;;;;;;;;;;;;;;;;;;;
2022/08/20 08:04:08;;;;;;;45.33;27.13;;;;;;;19.19;100.00;101558.63;6216131;23;20506;-89
2022/08/20 08:06:36;;;;;;;44.65;26.58;;;;;;;19.17;100.00;101565.47;6189723;23;20427;-89
2022/08/20 08:09:14;;;;;;;48.38;27.67;;;;;;;19.15;100.00;101564.88;6165305;23;20016;-89
2022/08/20 08:12:00;;;;;;;40.53;25.35;;;;;;;19.18;100.00;101565.22;6189218;23;20005;-90
2022/08/20 08:14:35;;;;;;;38.70;24.10;;;;;;;19.07;100.00;101563.41;6189734;23;20415;-90
2022/08/20 08:17:12;;;;;;;36.37;19.73;;;;;;;19.02;100.00;101566.94;6215902;23;20088;-89
2022/08/20 08:19:51;;;;;;;35.33;20.67;;;;;;;18.91;100.00;101563.22;6189523;23;20005;-89
2022/08/20 08:22:18;;;;;;;31.77;21.15;;;;;;;19.07;100.00;101574.41;6190419;23;20027;-89
2022/08/20 08:24:51;;;;;;;26.05;17.00;;;;;;;19.30;98.90;101572.50;6189887;23;20016;-89
2022/08/20 08:27:26;;;;;;;27.83;17.63;;;;;;;19.71;98.52;101575.69;6189199;23;20000;-90
2022/08/20 08:29:54;;;;;;;26.90;15.43;;;;;;;19.86;95.53;101567.66;6189885;23;20016;-90
2022/08/20 08:32:29;;;;;;;;;;;;;;;;;;;;;
2022/08/20 08:35:03;;;;;;;25.80;15.20;;;;;;;19.87;89.10;101568.47;6192366;23;20084;-89
2022/08/20 08:37:43;;;;;;;26.42;15.13;;;;;;;19.90;92.11;101570.69;6188996;23;20021;-90
2022/08/20 08:40:09;;;;;;;29.77;17.35;;;;;;;19.82;92.09;101569.25;6166080;23;20019;-90
2022/08/20 08:42:59;;;;;;;27.83;16.73;;;;;;;20.04;94.59;101569.19;6189100;23;20004;-89
2022/08/20 08:45:44;;;;;;;23.75;15.18;;;;;;;20.41;90.71;101579.41;6189971;23;20008;-89
2022/08/20 08:48:18;;;;;;;27.23;14.60;;;;;;;20.41;88.49;101576.66;6190447;23;20411;-89
2022/08/20 08:50:47;;;;;;;22.00;14.98;;;;;;;20.33;86.40;101583.50;6189363;23;20004;-89
2022/08/20 08:53:57;;;;;;;21.97;13.53;;;;;;;20.24;90.76;101587.81;6188979;23;20016;-90
2022/08/20 08:56:30;;;;;;;19.50;13.30;;;;;;;20.09;87.12;101591.28;6157919;23;20048;-89
2022/08/20 08:59:07;;;;;;;19.45;12.07;;;;;;;20.00;87.96;101586.50;6189683;23;20026;-90
2022/08/20 09:01:40;;;;;;;20.35;11.48;;;;;;;19.98;86.82;101579.31;6190347;23;20272;-90
2022/08/20 09:04:16;;;;;;;21.70;11.38;;;;;;;20.08;85.86;101588.78;6189819;23;20091;-89
2022/08/20 09:06:47;;;;;;;16.23;11.87;;;;;;;20.25;86.12;101589.47;6217594;23;20004;-90
2022/08/20 09:09:30;;;;;;;21.02;11.00;;;;;;;20.51;82.73;101586.94;6167926;23;20024;-90
2022/08/20 09:12:09;;;;;;;16.98;9.50;;;;;;;20.65;79.36;101596.41;6217472;23;20001;-89
2022/08/20 09:14:37;;;;;;;14.43;8.40;;;;;;;20.51;78.31;101589.69;6191555;23;20011;-89
2022/08/20 09:17:06;;;;;;;17.23;10.02;;;;;;;20.43;78.45;101590.16;6217827;23;20409;-89
2022/08/20 09:19:34;;;;;;;15.90;9.77;;;;;;;20.43;80.05;101585.50;6191264;23;20009;-90
2022/08/20 09:22:13;;;;;;;17.73;9.68;;;;;;;20.40;80.67;101594.28;6191080;23;20296;-89
2022/08/20 09:24:42;;;;;;;17.13;9.10;;;;;;;20.41;77.43;101598.69;6217149;23;20005;-86
2022/08/20 09:27:20;;;;;;;18.90;8.82;;;;;;;20.42;74.12;101585.78;6191146;23;20040;-90
2022/08/20 09:29:45;;;;;;;21.05;8.88;;;;;;;20.40;75.93;101586.00;6192310;23;20473;-87
2022/08/20 09:32:41;;;;;;;16.03;7.90;;;;;;;20.39;74.66;101589.03;6167127;23;20091;-90
2022/08/20 09:35:17;;;;;;;14.45;7.28;;;;;;;20.27;73.93;101584.53;6191051;23;20004;-89
2022/08/20 09:38:04;;;;;;;16.80;8.23;;;;;;;20.45;76.47;101588.00;6185213;23;20021;-89
2022/08/20 09:43:30;;;;;;;15.98;8.80;;;;;;;20.65;77.13;101577.13;6188687;23;20087;-90
2022/08/20 09:45:58;;;;;;;18.27;9.25;;;;;;;20.83;72.84;101583.28;6185538;23;20087;-89
2022/08/20 09:48:47;;;;;;;16.95;9.70;;;;;;;20.96;75.24;101568.19;6185637;23;20063;-89
2022/08/20 09:51:13;;;;;;;19.63;9.15;;;;;;;21.01;74.55;101573.75;6163649;23;20367;-90
2022/08/20 09:57:12;;;;;;;15.38;7.20;;;;;;;21.05;72.43;101576.78;6182895;23;20435;-89
2022/08/20 10:02:45;;;;;;;9.60;4.87;;;;;;;21.29;63.86;101583.53;6161670;23;20005;-89
2022/08/20 10:05:28;;;;;;;10.38;3.42;;;;;;;21.12;64.59;101588.44;6185216;23;20060;-90
2022/08/20 10:08:22;;;;;;;12.95;5.30;;;;;;;21.24;67.73;101583.50;6185056;23;20013;-89
2022/08/20 10:11:02;;;;;;;;;;;;;;;;;;;;;
2022/08/20 10:13:31;;;;;;;20.65;6.55;;;;;;;21.71;65.87;101577.06;6186251;23;20382;-89
2022/08/20 10:15:56;;;;;;;13.10;6.00;;;;;;;22.00;65.73;101572.97;6160556;23;20013;-89
2022/08/20 10:18:28;;;;;;;17.63;7.05;;;;;;;22.20;64.87;101573.00;6186787;23;20116;-89
2022/08/20 10:21:06;;;;;;;;;;;;;;;;;;;;;
2022/08/20 10:23:37;;;;;;;16.53;5.20;;;;;;;22.46;61.20;101578.53;6187611;23;20084;-90
2022/08/20 10:26:03;;;;;;;10.48;4.82;;;;;;;22.80;61.55;101586.22;6185924;23;20016;-90
2022/08/20 10:28:33;;;;;;;10.90;5.13;;;;;;;23.20;60.93;101578.09;6185519;23;20005;-90
2022/08/20 10:30:58;;;;;;;11.95;5.50;;;;;;;23.37;59.80;101577.72;6162229;23;20013;-90
2022/08/20 10:33:31;;;;;;;11.63;5.73;;;;;;;23.49;60.69;101567.16;6160586;23;20012;-90
2022/08/20 10:35:57;;;;;;;14.05;5.60;;;;;;;23.80;59.07;101580.81;6160939;23;20028;-90
2022/08/20 10:38:25;;;;;;;11.47;5.43;;;;;;;23.99;54.64;101564.34;6186121;23;20323;-95
2022/08/20 10:40:50;;;;;;;13.82;5.35;;;;;;;24.11;55.15;101575.06;6186261;23;20494;-94
2022/08/20 10:43:34;;;;;;;13.02;4.82;;;;;;;24.10;54.99;101573.44;6187527;23;20088;-95
2022/08/20 10:46:10;;;;;;;;;;;;;;;;;;;;;
2022/08/20 10:48:36;;;;;;;11.05;3.85;;;;;;;24.20;49.71;101578.03;6188304;23;20077;-93
2022/08/20 10:51:11;;;;;;;7.18;3.22;;;;;;;24.42;50.73;101575.66;6185767;23;20015;-94
2022/08/20 10:56:57;;;;;;;9.18;4.20;;;;;;;25.52;49.92;101577.75;6161116;23;20057;-93
2022/08/20 10:59:45;;;;;;;10.80;4.30;;;;;;;25.37;51.58;101578.78;6176746;23;20040;-92
2022/08/20 11:02:22;;;;;;;8.45;4.35;;;;;;;25.18;51.04;101581.50;6187079;23;20001;-92
2022/08/20 11:04:54;;;;;;;9.55;4.03;;;;;;;24.97;48.91;101580.09;6185593;23;20036;-92
2022/08/20 11:07:45;;;;;;;11.82;3.53;;;;;;;25.31;48.29;101588.31;6210412;23;20080;-92
2022/08/20 11:10:13;;;;;;;12.00;3.80;;;;;;;25.72;45.98;101587.75;6160641;23;20013;-91
2022/08/20 11:12:38;;;;;;;9.63;4.00;;;;;;;26.00;45.25;101567.59;6185060;23;20009;-92
2022/08/20 11:15:12;;;;;;;10.45;3.65;;;;;;;26.79;45.88;101569.59;6184720;23;20009;-92
2022/08/20 11:17:50;;;;;;;;;;;;;;;;;;;;;
2022/08/20 11:20:30;;;;;;;;;;;;;;;;;;;;;
2022/08/20 11:23:02;;;;;;;11.45;3.42;;;;;;;27.14;41.31;101570.81;6187267;23;20080;-87
2022/08/20 17:20:25;;;;;;;5.75;2.35;;;;;;;26.81;38.08;101521.94;6185744;23;20060;-85
2022/08/20 17:26:31;;;;;;;5.68;2.53;;;;;;;26.64;37.52;101522.56;6187447;23;20043;-85
2022/08/20 17:33:01;;;;;;;6.07;2.20;;;;;;;26.36;37.98;101516.94;6187228;23;20012;-84
2022/08/20 17:38:52;;;;;;;6.57;2.13;;;;;;;26.19;39.02;101529.50;6187253;23;20004;-84
2022/08/20 17:44:46;;;;;;;5.23;2.77;;;;;;;25.76;38.42;101532.38;6187269;23;20052;-85
2022/08/20 17:50:38;;;;;;;5.70;2.40;;;;;;;25.33;39.14;101527.72;6187127;23;20479;-85
2022/08/20 17:53:37;;;;;;;6.35;2.17;;;;;;;25.19;39.24;101533.16;6187990;23;20009;-84
2022/08/20 17:56:12;;;;;;;5.53;2.50;;;;;;;24.99;39.70;101539.00;6188042;23;20005;-84
2022/08/20 17:58:50;;;;;;;7.83;2.53;;;;;;;24.90;40.11;101536.03;6160740;23;20096;-84
2022/08/20 18:01:18;;;;;;;5.28;2.15;;;;;;;24.70;40.58;101534.34;6161370;23;20012;-85
2022/08/20 18:03:44;;;;;;;4.80;2.50;;;;;;;24.44;40.59;101533.75;6136878;23;20037;-84
2022/08/20 18:06:15;;;;;;;6.20;2.17;;;;;;;24.19;41.53;101524.56;6136313;23;20450;-84
2022/08/20 18:08:51;;;;;;;4.43;2.10;;;;;;;24.08;41.65;101534.06;6161364;23;20071;-85
2022/08/20 18:11:31;;;;;;;6.45;2.58;;;;;;;23.94;42.47;101542.22;6161135;23;20086;-85
2022/08/20 18:14:32;;;;;;;5.43;2.50;;;;;;;23.76;42.16;101539.00;6161719;23;20068;-85
2022/08/20 18:17:36;;;;;;;7.13;2.47;;;;;;;23.63;42.40;101546.00;6190120;23;20004;-85
2022/08/20 18:20:26;;;;;;;4.27;1.93;;;;;;;23.38;43.75;101546.97;6190679;23;20008;-85
2022/08/20 18:22:57;;;;;;;5.28;2.28;;;;;;;23.19;44.58;101541.25;6217108;23;20422;-84
2022/08/20 18:25:37;;;;;;;6.03;2.40;;;;;;;23.19;45.47;101549.56;6190915;23;20036;-84
2022/08/20 18:28:17;;;;;;;4.88;2.25;;;;;;;22.99;46.17;101556.00;6217549;23;20009;-84